createdAt,value
2018-10-06T00:01:49.681Z,67.05
2018-10-06T00:04:18.401Z,67.27
2018-10-06T00:06:47.353Z,67.47
2018-10-06T00:09:15.998Z,66.95
2018-10-06T00:11:44.930Z,68.11
2018-10-06T00:14:14.342Z,68.45
2018-10-06T00:16:43.373Z,67.90
2018-10-06T00:19:12.436Z,67.23
2018-10-06T00:21:41.729Z,68.03
2018-10-06T00:24:10.799Z,68.39
2018-10-06T00:26:40.028Z,68.84
2018-10-06T00:29:09.340Z,68.79
2018-10-06T00:31:38.027Z,68.08
2018-10-06T00:34:06.578Z,67.02
2018-10-06T00:36:35.476Z,67.12
2018-10-06T00:39:05.489Z,67.51
2018-10-06T00:41:34.124Z,66.85
2018-10-06T00:44:03.442Z,67.06
2018-10-06T00:46:32.269Z,67.54
2018-10-06T00:49:01.069Z,67.46
2018-10-06T00:51:29.998Z,67.08
2018-10-06T00:53:58.954Z,67.04
2018-10-06T00:56:27.670Z,67.40
2018-10-06T00:58:57.046Z,67.66
2018-10-06T01:01:25.713Z,67.31
2018-10-06T01:03:54.394Z,67.81
2018-10-06T01:06:23.278Z,68.20
2018-10-06T01:08:52.170Z,68.89
2018-10-06T01:11:20.824Z,68.66
2018-10-06T01:13:50.114Z,68.65
2018-10-06T01:16:19.179Z,69.11
2018-10-06T01:18:47.962Z,68.62
2018-10-06T01:21:16.995Z,69.05
2018-10-06T01:23:45.932Z,69.68
2018-10-06T01:26:14.848Z,69.39
2018-10-06T01:28:44.141Z,69.50
2018-10-06T01:31:12.796Z,69.17
2018-10-06T01:33:41.554Z,69.92
2018-10-06T01:36:10.538Z,70.54
2018-10-06T01:38:44.305Z,69.73
2018-10-06T01:41:13.347Z,69.92
2018-10-06T01:43:42.466Z,68.69
2018-10-06T01:46:11.831Z,69.71
2018-10-06T01:48:40.827Z,71.00
2018-10-06T01:51:09.659Z,72.09
2018-10-06T01:53:38.539Z,72.57
2018-10-06T01:56:07.870Z,71.56
2018-10-06T01:58:36.870Z,70.90
2018-10-06T02:01:05.627Z,71.35
2018-10-06T02:03:34.607Z,73.08
2018-10-06T02:06:03.360Z,73.63
2018-10-06T02:08:32.155Z,72.87
2018-10-06T02:11:01.110Z,72.70
2018-10-06T02:13:29.866Z,71.92
2018-10-06T02:15:59.106Z,71.52
2018-10-06T02:18:28.201Z,71.63
2018-10-06T02:20:57.066Z,71.15
2018-10-06T02:23:26.235Z,70.64
2018-10-06T02:25:55.120Z,70.49
2018-10-06T02:28:23.988Z,71.47
2018-10-06T02:30:52.960Z,72.59
2018-10-06T02:33:21.597Z,73.54
2018-10-06T02:35:50.243Z,73.17
2018-10-06T02:38:19.431Z,72.05
2018-10-06T02:40:48.232Z,71.60
2018-10-06T02:43:16.950Z,72.21
2018-10-06T02:45:46.371Z,72.67
2018-10-06T02:48:15.444Z,72.74
2018-10-06T02:50:44.340Z,72.81
2018-10-06T02:53:13.550Z,72.43
2018-10-06T02:55:42.454Z,71.96
2018-10-06T02:58:11.426Z,71.56
2018-10-06T03:00:40.199Z,72.99
2018-10-06T03:03:08.827Z,72.77
2018-10-06T03:05:37.547Z,72.62
2018-10-06T03:08:06.594Z,71.64
2018-10-06T03:10:35.460Z,71.71
2018-10-06T03:13:04.412Z,71.62
2018-10-06T03:15:33.679Z,70.98
2018-10-06T03:18:02.449Z,71.92
2018-10-06T03:20:31.327Z,72.65
2018-10-06T03:23:00.558Z,71.94
2018-10-06T03:25:29.205Z,72.28
2018-10-06T03:27:58.209Z,73.73
2018-10-06T03:30:27.023Z,72.91
2018-10-06T03:32:55.670Z,74.17
2018-10-06T03:35:24.374Z,72.90
2018-10-06T03:37:53.195Z,72.46
2018-10-06T03:40:22.371Z,72.20
2018-10-06T03:42:51.156Z,72.62
2018-10-06T03:45:20.185Z,73.49
2018-10-06T03:47:48.982Z,72.97
2018-10-06T03:50:18.146Z,72.27
2018-10-06T03:52:47.141Z,72.77
2018-10-06T03:55:16.140Z,72.56
2018-10-06T03:57:44.991Z,72.96
2018-10-06T04:00:14.041Z,73.11
2018-10-06T04:02:42.633Z,72.84
2018-10-06T04:05:11.783Z,72.05
2018-10-06T04:07:41.132Z,71.83
2018-10-06T04:10:09.995Z,70.66
2018-10-06T04:12:38.982Z,70.80
2018-10-06T04:15:07.662Z,70.70
2018-10-06T04:17:36.680Z,70.65
2018-10-06T04:20:05.722Z,70.85
2018-10-06T04:22:34.934Z,71.30
2018-10-06T04:25:03.862Z,71.89
2018-10-06T04:27:32.710Z,71.61
2018-10-06T04:30:01.474Z,71.62
2018-10-06T04:32:30.420Z,74.03
2018-10-06T04:34:59.462Z,74.18
2018-10-06T04:37:28.216Z,72.88
2018-10-06T04:39:57.519Z,72.97
2018-10-06T04:42:26.301Z,72.33
2018-10-06T04:44:55.323Z,72.52
2018-10-06T04:47:24.413Z,74.58
2018-10-06T04:49:53.194Z,75.10
2018-10-06T04:52:22.108Z,75.16
2018-10-06T04:54:51.080Z,74.87
2018-10-06T04:57:20.119Z,74.59
2018-10-06T04:59:48.675Z,74.35
2018-10-06T05:02:17.637Z,74.05
2018-10-06T05:04:46.355Z,73.86
2018-10-06T05:07:15.425Z,73.77
2018-10-06T05:09:44.702Z,73.13
2018-10-06T05:12:13.295Z,72.89
2018-10-06T05:14:42.311Z,72.43
2018-10-06T05:17:11.260Z,72.44
2018-10-06T05:19:39.959Z,71.96
2018-10-06T05:22:08.946Z,71.98
2018-10-06T05:24:38.223Z,71.14
2018-10-06T05:27:07.471Z,70.19
2018-10-06T05:29:36.166Z,69.77
2018-10-06T05:32:05.138Z,68.17
2018-10-06T05:34:34.202Z,68.00
2018-10-06T05:37:03.112Z,67.39
2018-10-06T05:39:32.099Z,66.82
2018-10-06T05:42:01.024Z,65.96
2018-10-06T05:44:29.906Z,65.71
2018-10-06T05:46:59.095Z,65.12
2018-10-06T05:49:27.980Z,65.20
2018-10-06T05:51:56.747Z,65.06
2018-10-06T05:54:25.712Z,64.81
2018-10-06T05:56:54.467Z,65.00
2018-10-06T05:59:23.163Z,65.05
2018-10-06T06:01:52.214Z,64.83
2018-10-06T06:04:21.155Z,64.18
2018-10-06T06:06:49.986Z,63.69
2018-10-06T06:09:18.955Z,63.61
2018-10-06T06:11:47.898Z,64.05
2018-10-06T06:14:16.886Z,63.92
2018-10-06T06:16:45.780Z,63.19
2018-10-06T06:19:14.578Z,63.13
2018-10-06T06:21:43.392Z,62.77
2018-10-06T06:24:12.359Z,62.50
2018-10-06T06:26:40.975Z,60.92
2018-10-06T06:29:09.658Z,61.00
2018-10-06T06:31:38.306Z,61.57
2018-10-06T06:34:07.222Z,61.55
2018-10-06T06:36:36.236Z,60.99
2018-10-06T06:39:05.962Z,60.94
2018-10-06T06:41:35.216Z,60.33
2018-10-06T06:44:04.129Z,59.86
2018-10-06T06:46:32.770Z,59.54
2018-10-06T06:49:01.983Z,59.14
2018-10-06T06:51:30.646Z,57.92
2018-10-06T06:53:59.296Z,57.03
2018-10-06T06:56:28.079Z,57.06
2018-10-06T06:58:56.947Z,57.20
2018-10-06T07:01:25.581Z,56.60
2018-10-06T07:03:54.709Z,57.04
2018-10-06T07:06:23.781Z,57.26
2018-10-06T07:08:52.691Z,56.55
2018-10-06T07:11:21.754Z,56.36
2018-10-06T07:13:50.723Z,55.35
2018-10-06T07:16:19.425Z,55.38
2018-10-06T07:18:49.108Z,55.45
2018-10-06T07:21:17.808Z,54.57
2018-10-06T07:23:46.795Z,53.91
2018-10-06T07:26:15.870Z,53.25
2018-10-06T07:28:44.595Z,52.42
2018-10-06T07:31:13.695Z,52.67
2018-10-06T07:33:42.520Z,53.12
2018-10-06T07:36:11.404Z,52.42
2018-10-06T07:38:40.459Z,52.20
2018-10-06T07:41:09.410Z,51.02
2018-10-06T07:43:38.357Z,49.74
2018-10-06T07:46:07.961Z,50.08
2018-10-06T07:48:36.752Z,50.54
2018-10-06T07:51:05.578Z,50.20
2018-10-06T07:53:34.178Z,50.08
2018-10-06T07:56:02.809Z,50.09
2018-10-06T07:58:31.604Z,50.21
2018-10-06T08:01:00.430Z,49.36
2018-10-06T08:03:29.545Z,48.36
2018-10-06T08:05:58.737Z,47.92
2018-10-06T08:08:27.888Z,48.26
2018-10-06T08:10:56.960Z,48.16
2018-10-06T08:13:25.916Z,48.08
2018-10-06T08:15:54.965Z,47.91
2018-10-06T08:18:23.635Z,48.24
2018-10-06T08:20:52.698Z,48.08
2018-10-06T08:23:21.416Z,48.05
2018-10-06T08:25:50.199Z,47.06
2018-10-06T08:28:19.022Z,46.40
2018-10-06T08:30:47.966Z,45.85
2018-10-06T08:33:16.893Z,45.96
2018-10-06T08:35:45.696Z,46.39
2018-10-06T08:38:14.594Z,45.66
2018-10-06T08:40:43.512Z,46.52
2018-10-06T08:43:12.703Z,45.72
2018-10-06T08:45:41.612Z,44.49
2018-10-06T08:48:10.814Z,44.02
2018-10-06T08:50:39.606Z,44.39
2018-10-06T08:53:08.479Z,43.93
2018-10-06T08:55:37.174Z,43.25
2018-10-06T08:58:06.012Z,43.30
2018-10-06T09:00:35.091Z,43.89
2018-10-06T09:03:03.923Z,43.85
2018-10-06T09:05:32.831Z,44.35
2018-10-06T09:08:01.608Z,43.96
2018-10-06T09:10:30.635Z,43.03
2018-10-06T09:12:59.476Z,42.25
2018-10-06T09:15:28.234Z,42.04
2018-10-06T09:17:57.161Z,41.45
2018-10-06T09:20:25.935Z,41.64
2018-10-06T09:22:54.659Z,41.10
2018-10-06T09:25:23.295Z,40.51
2018-10-06T09:27:52.249Z,39.47
2018-10-06T09:30:21.315Z,39.89
2018-10-06T09:32:50.491Z,37.68
2018-10-06T09:35:19.399Z,35.83
2018-10-06T09:37:48.291Z,35.08
2018-10-06T09:40:17.196Z,36.29
2018-10-06T09:42:46.102Z,35.36
2018-10-06T09:45:15.120Z,34.31
2018-10-06T09:47:44.207Z,33.75
2018-10-06T09:50:12.926Z,32.05
2018-10-06T09:52:41.625Z,32.74
2018-10-06T09:55:10.349Z,33.29
2018-10-06T09:57:39.259Z,34.10
2018-10-06T10:00:08.863Z,32.13
2018-10-06T10:02:43.108Z,32.15
2018-10-06T10:05:17.234Z,31.67
2018-10-06T10:07:46.193Z,31.26
2018-10-06T10:10:15.151Z,30.50
2018-10-06T10:12:44.010Z,31.22
2018-10-06T10:15:13.107Z,29.37
2018-10-06T10:17:42.341Z,29.57
2018-10-06T10:20:11.064Z,29.46
2018-10-06T10:22:40.103Z,29.37
2018-10-06T10:25:08.885Z,28.55
2018-10-06T10:27:38.075Z,28.61
2018-10-06T10:30:07.287Z,28.02
2018-10-06T10:32:36.090Z,28.67
2018-10-06T10:35:05.131Z,27.77
2018-10-06T10:37:34.165Z,28.13
2018-10-06T10:40:02.796Z,27.76
2018-10-06T10:42:31.666Z,26.32
2018-10-06T10:45:00.517Z,26.14
2018-10-06T10:47:29.270Z,25.92
2018-10-06T10:49:58.375Z,25.96
2018-10-06T10:52:27.471Z,25.73
2018-10-06T10:54:56.396Z,26.04
2018-10-06T10:57:25.161Z,25.93
2018-10-06T10:59:54.333Z,24.43
2018-10-06T11:02:23.316Z,24.99
2018-10-06T11:04:52.392Z,24.42
2018-10-06T11:07:21.467Z,24.25
2018-10-06T11:09:50.547Z,24.05
2018-10-06T11:12:19.546Z,24.15
2018-10-06T11:14:48.691Z,23.64
2018-10-06T11:17:17.645Z,24.23
2018-10-06T11:19:46.303Z,25.66
2018-10-06T11:22:15.086Z,24.77
2018-10-06T11:24:44.015Z,24.14
2018-10-06T11:27:12.732Z,23.00
2018-10-06T11:29:41.520Z,23.36
2018-10-06T11:32:10.506Z,23.52
2018-10-06T11:34:39.577Z,23.98
2018-10-06T11:37:08.648Z,23.23
2018-10-06T11:39:37.426Z,24.73
2018-10-06T11:42:06.336Z,25.09
2018-10-06T11:44:35.227Z,26.07
2018-10-06T11:47:04.143Z,24.26
2018-10-06T11:49:32.820Z,23.71
2018-10-06T11:52:01.620Z,23.46
2018-10-06T11:54:30.437Z,23.95
2018-10-06T11:56:59.318Z,23.50
2018-10-06T11:59:28.130Z,23.14
2018-10-06T12:01:57.963Z,23.66
2018-10-06T12:04:26.723Z,22.98
2018-10-06T12:06:55.655Z,22.06
2018-10-06T12:09:24.620Z,22.87
2018-10-06T12:11:53.464Z,22.75
2018-10-06T12:14:22.395Z,22.21
2018-10-06T12:16:51.085Z,21.18
2018-10-06T12:19:19.993Z,22.25
2018-10-06T12:21:48.806Z,21.28
2018-10-06T12:24:17.980Z,21.42
2018-10-06T12:26:46.670Z,21.56
2018-10-06T12:29:15.444Z,22.08
2018-10-06T12:31:44.286Z,22.31
2018-10-06T12:34:13.302Z,21.18
2018-10-06T12:36:42.105Z,20.82
2018-10-06T12:39:10.811Z,21.16
2018-10-06T12:41:39.487Z,20.83
2018-10-06T12:44:08.310Z,20.81
2018-10-06T12:46:37.062Z,20.63
2018-10-06T12:49:05.833Z,20.78
2018-10-06T12:51:34.552Z,20.92
2018-10-06T12:54:03.106Z,20.34
2018-10-06T12:56:31.939Z,20.03
2018-10-06T12:59:00.699Z,19.76
2018-10-06T13:01:29.924Z,19.89
2018-10-06T13:03:58.894Z,19.85
2018-10-06T13:06:27.785Z,20.13
2018-10-06T13:08:56.711Z,19.86
2018-10-06T13:11:25.584Z,19.83
2018-10-06T13:13:54.335Z,19.70
2018-10-06T13:16:23.132Z,19.36
2018-10-06T13:18:51.782Z,18.87
2018-10-06T13:21:20.466Z,20.30
2018-10-06T13:23:49.439Z,18.95
2018-10-06T13:26:18.342Z,19.79
2018-10-06T13:28:47.385Z,19.28
2018-10-06T13:31:16.586Z,19.86
2018-10-06T13:33:45.378Z,19.03
2018-10-06T13:36:14.319Z,19.54
2018-10-06T13:38:43.176Z,19.68
2018-10-06T13:41:12.395Z,19.72
2018-10-06T13:43:41.313Z,19.30
2018-10-06T13:46:10.524Z,18.88
2018-10-06T13:48:39.235Z,18.96
2018-10-06T13:51:08.110Z,19.47
2018-10-06T13:53:37.034Z,19.84
2018-10-06T13:56:05.810Z,20.02
2018-10-06T13:58:34.878Z,20.03
2018-10-06T14:01:03.907Z,19.55
2018-10-06T14:03:32.638Z,20.17
2018-10-06T14:06:01.504Z,19.83
2018-10-06T14:08:30.413Z,19.75
2018-10-06T14:10:59.218Z,20.11
2018-10-06T14:13:27.867Z,20.13
2018-10-06T14:15:56.546Z,20.44
2018-10-06T14:18:25.102Z,19.73
2018-10-06T14:20:53.767Z,19.78
2018-10-06T14:23:22.916Z,20.07
2018-10-06T14:25:51.947Z,19.63
2018-10-06T14:28:20.735Z,19.56
2018-10-06T14:30:49.933Z,19.46
2018-10-06T14:33:18.790Z,20.53
2018-10-06T14:35:47.534Z,19.51
2018-10-06T14:38:16.442Z,20.90
2018-10-06T14:40:45.389Z,20.63
2018-10-06T14:43:14.555Z,20.00
2018-10-06T14:45:43.347Z,20.72
2018-10-06T14:48:11.963Z,20.60
2018-10-06T14:50:40.604Z,20.66
2018-10-06T14:53:09.514Z,20.62
2018-10-06T14:55:38.460Z,20.92
2018-10-06T14:58:07.731Z,21.33
2018-10-06T15:00:36.448Z,21.34
2018-10-06T15:03:05.624Z,21.49
2018-10-06T15:05:34.689Z,20.92
2018-10-06T15:08:03.577Z,20.61
2018-10-06T15:10:32.582Z,21.32
2018-10-06T15:13:01.343Z,19.59
2018-10-06T15:15:29.963Z,19.44
2018-10-06T15:17:58.864Z,20.00
2018-10-06T15:20:27.722Z,20.45
2018-10-06T15:22:56.382Z,19.98
2018-10-06T15:25:25.864Z,19.44
2018-10-06T15:27:54.644Z,19.97
2018-10-06T15:30:23.321Z,20.28
2018-10-06T15:32:52.666Z,21.57
2018-10-06T15:35:21.575Z,22.69
2018-10-06T15:37:50.658Z,23.08
2018-10-06T15:40:19.950Z,23.46
2018-10-06T15:42:48.821Z,23.27
2018-10-06T15:45:17.471Z,24.26
2018-10-06T15:47:46.529Z,24.70
2018-10-06T15:50:15.335Z,25.80
2018-10-06T15:52:44.034Z,26.54
2018-10-06T15:55:13.376Z,27.11
2018-10-06T15:57:42.562Z,27.20
2018-10-06T16:00:11.454Z,27.70
2018-10-06T16:02:40.451Z,27.92
2018-10-06T16:05:09.302Z,27.84
2018-10-06T16:07:38.097Z,27.92
2018-10-06T16:10:07.494Z,28.08
2018-10-06T16:12:36.242Z,28.57
2018-10-06T16:15:05.647Z,28.67
2018-10-06T16:17:34.309Z,28.75
2018-10-06T16:20:03.484Z,29.63
2018-10-06T16:22:32.693Z,29.50
2018-10-06T16:25:01.676Z,29.81
2018-10-06T16:27:30.793Z,30.14
2018-10-06T16:29:59.801Z,30.68
2018-10-06T16:32:28.915Z,30.99
2018-10-06T16:34:57.854Z,30.83
2018-10-06T16:37:26.719Z,31.29
2018-10-06T16:39:55.602Z,31.49
2018-10-06T16:42:24.312Z,31.55
2018-10-06T16:44:53.036Z,31.33
2018-10-06T16:47:22.136Z,31.53
2018-10-06T16:49:51.001Z,31.66
2018-10-06T16:52:20.007Z,31.70
2018-10-06T16:54:48.875Z,31.98
2018-10-06T16:57:17.755Z,32.02
2018-10-06T16:59:46.932Z,32.30
2018-10-06T17:02:15.925Z,32.56
2018-10-06T17:04:44.758Z,33.13
2018-10-06T17:07:13.924Z,33.42
2018-10-06T17:09:42.940Z,33.18
2018-10-06T17:12:11.734Z,32.84
2018-10-06T17:14:40.747Z,32.85
2018-10-06T17:17:09.446Z,33.38
2018-10-06T17:19:38.221Z,33.07
2018-10-06T17:22:07.430Z,32.85
2018-10-06T17:24:36.386Z,32.20
2018-10-06T17:27:05.123Z,32.48
2018-10-06T17:29:34.018Z,32.19
2018-10-06T17:32:02.971Z,32.37
2018-10-06T17:34:31.771Z,31.26
2018-10-06T17:37:00.782Z,31.36
2018-10-06T17:39:29.753Z,30.40
2018-10-06T17:41:58.813Z,30.02
2018-10-06T17:44:27.683Z,30.41
2018-10-06T17:46:56.329Z,29.60
2018-10-06T17:49:25.311Z,29.36
2018-10-06T17:51:54.000Z,29.04
2018-10-06T17:54:22.682Z,29.15
2018-10-06T17:56:51.732Z,29.71
2018-10-06T17:59:20.650Z,29.99
2018-10-06T18:01:49.851Z,30.70
2018-10-06T18:04:19.114Z,31.13
2018-10-06T18:06:47.837Z,31.37
2018-10-06T18:09:16.663Z,31.74
2018-10-06T18:11:45.658Z,32.32
2018-10-06T18:14:14.345Z,32.92
2018-10-06T18:16:43.504Z,33.72
2018-10-06T18:19:12.658Z,34.49
2018-10-06T18:21:41.624Z,35.05
2018-10-06T18:24:10.523Z,36.11
2018-10-06T18:26:39.998Z,37.04
2018-10-06T18:29:08.823Z,36.63
2018-10-06T18:31:37.415Z,37.14
2018-10-06T18:34:06.774Z,36.98
2018-10-06T18:36:35.818Z,37.10
2018-10-06T18:39:05.662Z,37.73
2018-10-06T18:41:34.363Z,38.17
2018-10-06T18:44:03.050Z,38.44
2018-10-06T18:46:32.118Z,38.33
2018-10-06T18:49:01.076Z,39.06
2018-10-06T18:51:29.876Z,39.37
2018-10-06T18:53:58.844Z,39.68
2018-10-06T18:56:27.667Z,40.42
2018-10-06T18:58:56.616Z,40.56
2018-10-06T19:01:26.111Z,41.40
2018-10-06T19:03:54.963Z,41.49
2018-10-06T19:06:23.711Z,42.01
2018-10-06T19:08:52.860Z,43.26
2018-10-06T19:11:21.594Z,44.14
2018-10-06T19:13:50.339Z,44.70
2018-10-06T19:16:19.357Z,45.95
2018-10-06T19:18:48.255Z,46.25
2018-10-06T19:21:17.106Z,45.96
2018-10-06T19:23:46.191Z,46.35
2018-10-06T19:26:15.547Z,46.82
2018-10-06T19:28:44.323Z,46.43
2018-10-06T19:31:13.515Z,47.25
2018-10-06T19:33:42.338Z,47.28
2018-10-06T19:36:11.348Z,47.85
2018-10-06T19:38:40.311Z,48.19
2018-10-06T19:41:08.888Z,48.19
2018-10-06T19:43:37.488Z,49.06
2018-10-06T19:46:06.634Z,48.70
2018-10-06T19:48:35.533Z,49.15
2018-10-06T19:51:04.494Z,49.69
2018-10-06T19:53:33.756Z,49.94
2018-10-06T19:56:02.656Z,50.43
2018-10-06T19:58:31.737Z,50.31
2018-10-06T20:01:01.164Z,50.36
2018-10-06T20:03:30.067Z,50.53
2018-10-06T20:05:58.901Z,51.07
2018-10-06T20:08:27.974Z,50.70
2018-10-06T20:10:56.603Z,51.02
2018-10-06T20:13:25.313Z,51.41
2018-10-06T20:15:54.159Z,52.23
2018-10-06T20:18:23.209Z,49.54
2018-10-06T20:20:52.114Z,48.91
2018-10-06T20:23:21.178Z,49.04
2018-10-06T20:25:50.188Z,49.90
2018-10-06T20:28:19.304Z,50.29
2018-10-06T20:30:48.631Z,50.87
2018-10-06T20:33:17.594Z,51.24
2018-10-06T20:35:46.419Z,52.23
2018-10-06T20:38:15.287Z,51.26
2018-10-06T20:40:43.915Z,53.18
2018-10-06T20:43:12.622Z,53.77
2018-10-06T20:45:41.758Z,52.85
2018-10-06T20:48:10.534Z,53.53
2018-10-06T20:50:39.479Z,52.52
2018-10-06T20:53:08.886Z,53.95
2018-10-06T20:55:37.998Z,54.74
2018-10-06T20:58:07.082Z,53.68
2018-10-06T21:00:36.320Z,53.43
2018-10-06T21:03:05.298Z,53.61
2018-10-06T21:05:34.092Z,53.75
2018-10-06T21:08:03.277Z,55.43
2018-10-06T21:10:31.912Z,54.87
2018-10-06T21:13:00.485Z,55.75
2018-10-06T21:15:29.264Z,55.10
2018-10-06T21:17:57.979Z,54.62
2018-10-06T21:20:27.151Z,55.25
2018-10-06T21:22:56.303Z,55.80
2018-10-06T21:25:25.077Z,56.87
2018-10-06T21:27:54.298Z,56.91
2018-10-06T21:30:23.547Z,56.25
2018-10-06T21:32:52.212Z,55.76
2018-10-06T21:35:21.239Z,58.29
2018-10-06T21:37:50.221Z,58.53
2018-10-06T21:40:18.911Z,57.71
2018-10-06T21:42:47.727Z,58.20
2018-10-06T21:45:16.604Z,59.74
2018-10-06T21:47:45.532Z,59.06
2018-10-06T21:50:14.442Z,59.74
2018-10-06T21:52:43.325Z,60.96
2018-10-06T21:55:11.995Z,61.41
2018-10-06T21:57:40.767Z,61.21
2018-10-06T22:00:09.828Z,62.66
2018-10-06T22:02:38.422Z,62.83
2018-10-06T22:05:07.135Z,63.58
2018-10-06T22:07:36.100Z,63.26
2018-10-06T22:10:04.757Z,64.52
2018-10-06T22:12:33.841Z,64.44
2018-10-06T22:15:03.074Z,63.94
2018-10-06T22:17:31.905Z,65.48
2018-10-06T22:20:01.268Z,65.98
2018-10-06T22:22:30.167Z,65.43
2018-10-06T22:24:59.253Z,65.90
2018-10-06T22:27:28.134Z,65.24
2018-10-06T22:29:57.316Z,65.52
2018-10-06T22:32:26.071Z,65.97
2018-10-06T22:34:54.963Z,66.44
2018-10-06T22:37:23.927Z,67.73
2018-10-06T22:39:52.543Z,67.74
2018-10-06T22:42:21.287Z,68.92
2018-10-06T22:44:50.651Z,68.92
2018-10-06T22:47:19.354Z,69.41
2018-10-06T22:49:48.406Z,69.05
2018-10-06T22:52:17.915Z,68.96
2018-10-06T22:54:46.566Z,68.68
2018-10-06T22:57:15.635Z,68.24
2018-10-06T22:59:44.643Z,67.69
2018-10-06T23:02:13.520Z,68.18
2018-10-06T23:04:42.542Z,68.10
2018-10-06T23:07:11.423Z,68.45
2018-10-06T23:09:40.121Z,69.42
2018-10-06T23:12:08.930Z,68.92
2018-10-06T23:14:38.042Z,69.87
2018-10-06T23:17:07.138Z,70.61
2018-10-06T23:19:36.017Z,70.37
2018-10-06T23:22:05.662Z,69.72
2018-10-06T23:24:40.912Z,69.68
2018-10-06T23:27:09.703Z,68.94
2018-10-06T23:29:38.361Z,69.09
2018-10-06T23:32:06.970Z,70.39
2018-10-06T23:34:35.811Z,69.75
2018-10-06T23:37:04.462Z,71.10
2018-10-06T23:39:33.043Z,71.57
2018-10-06T23:42:02.090Z,70.80
2018-10-06T23:44:30.777Z,70.62
2018-10-06T23:46:59.406Z,71.06
2018-10-06T23:49:28.443Z,71.70
2018-10-06T23:51:57.102Z,71.50
2018-10-06T23:54:25.789Z,71.00
2018-10-06T23:56:54.407Z,71.29
2018-10-06T23:59:22.990Z,70.76
